createdAt,value
2024-02-24T00:09:49.331Z,26.10
2024-02-24T00:19:56.960Z,16.80
2024-02-24T00:30:04.343Z,19.60
2024-02-24T00:40:13.647Z,14.70
2024-02-24T00:50:20.650Z,13.10
2024-02-24T01:00:27.856Z,13.20
2024-02-24T01:10:34.993Z,11.50
2024-02-24T01:20:42.352Z,14.60
2024-02-24T01:30:50.349Z,11.90
2024-02-24T01:40:57.591Z,11.10
2024-02-24T01:51:05.687Z,15.60
2024-02-24T02:01:12.956Z,11.30
2024-02-24T02:11:20.406Z,13.10
2024-02-24T02:21:28.796Z,10.90
2024-02-24T02:31:35.934Z,9.70
2024-02-24T02:41:43.011Z,12.00
2024-02-24T02:51:50.089Z,10.90
2024-02-24T03:02:00.160Z,12.70
2024-02-24T03:12:07.482Z,13.20
2024-02-24T03:22:14.775Z,10.20
2024-02-24T03:32:22.145Z,9.30
2024-02-24T03:42:29.175Z,9.60
2024-02-24T03:52:36.033Z,12.90
2024-02-24T04:02:41.684Z,8.50
2024-02-24T04:12:49.214Z,8.50
2024-02-24T04:22:57.015Z,7.20
2024-02-24T04:33:04.265Z,12.90
2024-02-24T04:43:11.384Z,11.10
2024-02-24T04:53:18.440Z,10.90
2024-02-24T05:03:25.677Z,10.50
2024-02-24T05:13:33.400Z,14.30
2024-02-24T05:23:40.705Z,10.60
2024-02-24T05:33:48.963Z,7.10
2024-02-24T05:43:55.931Z,11.80
2024-02-24T05:54:02.961Z,12.30
2024-02-24T06:04:10.033Z,12.40
2024-02-24T06:14:20.124Z,9.20
2024-02-24T06:24:27.914Z,7.00
2024-02-24T06:34:35.525Z,6.30
2024-02-24T06:44:43.052Z,9.20
2024-02-24T06:54:51.585Z,6.80
2024-02-24T07:04:58.921Z,6.80
2024-02-24T07:15:05.437Z,12.90
2024-02-24T07:25:12.637Z,2.40
2024-02-24T07:35:17.612Z,11.90
2024-02-24T07:45:26.851Z,4.80
2024-02-24T08:05:40.066Z,3.70
2024-02-24T08:15:47.263Z,6.30
2024-02-24T08:25:56.530Z,4.70
2024-02-24T08:36:04.562Z,4.20
2024-02-24T08:46:12.416Z,2.90
2024-02-24T08:56:20.424Z,3.30
2024-02-24T09:06:27.022Z,5.80
2024-02-24T09:16:34.094Z,3.40
2024-02-24T09:26:41.521Z,3.20
2024-02-24T09:36:48.738Z,5.00
2024-02-24T09:46:56.969Z,8.70
2024-02-24T09:57:05.564Z,7.30
2024-02-24T10:07:11.756Z,5.30
2024-02-24T10:17:18.081Z,6.30
2024-02-24T10:27:25.339Z,24.30
2024-02-24T10:37:48.539Z,17.40
2024-02-24T10:48:01.534Z,16.10
2024-02-24T10:58:07.729Z,15.80
2024-02-24T11:08:45.362Z,7.80
2024-02-24T11:18:58.908Z,5.40
2024-02-24T11:29:09.317Z,3.90
2024-02-24T11:39:16.604Z,8.30
2024-02-24T11:49:22.807Z,11.20
2024-02-24T11:59:31.638Z,12.00
2024-02-24T12:09:38.706Z,4.40
2024-02-24T12:19:47.481Z,7.10
2024-02-24T12:29:54.732Z,11.30
2024-02-24T12:40:02.145Z,7.70
2024-02-24T12:50:07.333Z,4.20
2024-02-24T13:00:17.434Z,4.10
2024-02-24T13:10:25.083Z,16.70
2024-02-24T13:20:32.489Z,4.00
2024-02-24T13:30:39.922Z,7.90
2024-02-24T13:40:45.827Z,18.20
2024-02-24T13:50:52.971Z,7.10
2024-02-24T14:01:00.547Z,7.30
2024-02-24T14:11:08.326Z,9.80
2024-02-24T14:21:15.437Z,4.30
2024-02-24T14:31:21.761Z,6.40
2024-02-24T14:41:29.357Z,6.90
2024-02-24T14:51:36.717Z,9.10
2024-02-24T15:01:43.798Z,10.50
2024-02-24T15:11:50.950Z,7.70
2024-02-24T15:21:58.293Z,13.60
2024-02-24T15:32:06.927Z,12.10
2024-02-24T15:42:14.087Z,12.20
2024-02-24T15:52:21.678Z,24.80
2024-02-24T16:02:29.238Z,19.40
2024-02-24T16:12:35.279Z,21.80
2024-02-24T16:22:42.487Z,34.40
2024-02-24T16:32:48.555Z,44.00
2024-02-24T16:42:56.603Z,53.90
2024-02-24T16:53:03.280Z,59.80
2024-02-24T17:03:09.655Z,77.30
2024-02-24T17:13:16.187Z,75.70
2024-02-24T17:23:23.447Z,72.40
2024-02-24T17:33:30.687Z,79.20
2024-02-24T17:43:37.797Z,137.10
2024-02-24T17:53:47.099Z,169.50
2024-02-24T18:03:54.367Z,126.40
2024-02-24T18:14:01.788Z,131.50
2024-02-24T18:24:08.212Z,103.30
2024-02-24T18:34:15.076Z,89.60
2024-02-24T18:44:21.894Z,104.90
2024-02-24T18:54:30.564Z,139.70
2024-02-24T19:04:37.933Z,143.20
2024-02-24T19:14:51.834Z,117.80
2024-02-24T19:25:02.540Z,110.10
2024-02-24T19:35:10.583Z,106.70
2024-02-24T19:45:16.851Z,131.40
2024-02-24T19:55:23.818Z,125.40
2024-02-24T20:05:29.769Z,103.10
2024-02-24T20:15:36.923Z,115.90
2024-02-24T20:25:44.223Z,80.30
2024-02-24T20:35:51.601Z,77.00
2024-02-24T20:45:59.110Z,70.60
2024-02-24T20:56:07.196Z,88.00
2024-02-24T21:06:15.187Z,97.60
2024-02-24T21:16:22.568Z,87.90
2024-02-24T21:26:29.839Z,69.60
2024-02-24T21:36:37.150Z,75.40
2024-02-24T21:46:44.461Z,69.00
2024-02-24T21:56:52.111Z,87.20
2024-02-24T22:06:59.562Z,90.90
2024-02-24T22:17:05.339Z,55.70
2024-02-24T22:27:12.552Z,54.50
2024-02-24T22:37:19.054Z,49.40
2024-02-24T22:47:25.179Z,99.20
2024-02-24T22:57:32.456Z,122.50
2024-02-24T23:07:39.717Z,108.10
2024-02-24T23:17:45.902Z,69.70
2024-02-24T23:27:53.118Z,59.10
2024-02-24T23:37:59.048Z,84.80
2024-02-24T23:48:05.576Z,85.60
2024-02-24T23:58:12.670Z,83.00
